sensor_id;sensor_type;location;lat;lon;timestamp;pressure;altitude;pressure_sealevel;temperature;humidity
39295;BME280;52361;52.100;5.248;2023-04-03T00:03:11;102989.00000000001;;;6.1;73.41
39295;BME280;52361;52.100;5.248;2023-04-03T00:04:47;102984.99999999999;;;5.98;73.89
39295;BME280;52361;52.100;5.248;2023-04-03T00:06:25;102989.00000000001;;;6.07;72.8
39295;BME280;52361;52.100;5.248;2023-04-03T00:08:02;102991.00000000001;;;5.78;73.73
39295;BME280;52361;52.100;5.248;2023-04-03T00:11:15;102990.00000000001;;;6.09;73.33
39295;BME280;52361;52.100;5.248;2023-04-03T00:12:51;102992.0;;;6.09;73.36
39295;BME280;52361;52.100;5.248;2023-04-03T00:14:29;102994.0;;;6.15;73.42
39295;BME280;52361;52.100;5.248;2023-04-03T00:17:43;102995.0;;;6.0;73.39
39295;BME280;52361;52.100;5.248;2023-04-03T00:19:19;102995.0;;;6.03;73.52
39295;BME280;52361;52.100;5.248;2023-04-03T00:20:57;102999.0;;;5.96;74.19
39295;BME280;52361;52.100;5.248;2023-04-03T00:22:34;103000.0;;;5.97;74.44
39295;BME280;52361;52.100;5.248;2023-04-03T00:25:46;103002.0;;;5.88;74.87
39295;BME280;52361;52.100;5.248;2023-04-03T00:27:23;103004.0;;;5.88;74.34
39295;BME280;52361;52.100;5.248;2023-04-03T00:28:59;103003.0;;;5.91;74.13
39295;BME280;52361;52.100;5.248;2023-04-03T00:32:12;103005.0;;;5.73;75.02
39295;BME280;52361;52.100;5.248;2023-04-03T00:33:49;103007.0;;;5.86;74.73
39295;BME280;52361;52.100;5.248;2023-04-03T00:35:27;103004.0;;;5.8;74.74
39295;BME280;52361;52.100;5.248;2023-04-03T00:38:41;103004.0;;;5.79;74.86
39295;BME280;52361;52.100;5.248;2023-04-03T00:40:17;103000.0;;;5.82;74.87
39295;BME280;52361;52.100;5.248;2023-04-03T00:41:54;103005.0;;;5.67;75.36
39295;BME280;52361;52.100;5.248;2023-04-03T00:43:30;103006.0;;;5.62;75.59
39295;BME280;52361;52.100;5.248;2023-04-03T00:47:08;103003.0;;;5.49;75.98
39295;BME280;52361;52.100;5.248;2023-04-03T00:48:47;103011.99999999999;;;5.56;76.02
39295;BME280;52361;52.100;5.248;2023-04-03T00:50:25;103009.99999999999;;;5.54;75.97
39295;BME280;52361;52.100;5.248;2023-04-03T00:52:03;103011.99999999999;;;5.59;75.75
39295;BME280;52361;52.100;5.248;2023-04-03T00:55:25;103007.0;;;5.45;76.47
39295;BME280;52361;52.100;5.248;2023-04-03T00:57:02;103011.99999999999;;;5.39;76.99
39295;BME280;52361;52.100;5.248;2023-04-03T00:58:44;103008.0;;;5.31;77.41
39295;BME280;52361;52.100;5.248;2023-04-03T01:00:25;103013.00000000001;;;5.34;77.3
39295;BME280;52361;52.100;5.248;2023-04-03T01:03:38;103008.99999999999;;;5.28;77.86
39295;BME280;52361;52.100;5.248;2023-04-03T01:05:16;103014.00000000001;;;5.48;77.44
39295;BME280;52361;52.100;5.248;2023-04-03T01:06:53;103015.00000000001;;;5.53;77.17
39295;BME280;52361;52.100;5.248;2023-04-03T01:10:11;103014.00000000001;;;5.45;77.44
39295;BME280;52361;52.100;5.248;2023-04-03T01:11:49;103015.00000000001;;;5.38;78.02
39295;BME280;52361;52.100;5.248;2023-04-03T01:13:28;103015.00000000001;;;5.37;77.83
39295;BME280;52361;52.100;5.248;2023-04-03T01:15:09;103017.0;;;5.23;77.8
39295;BME280;52361;52.100;5.248;2023-04-03T01:18:29;103023.0;;;5.36;77.67
39295;BME280;52361;52.100;5.248;2023-04-03T01:20:33;103018.0;;;5.27;77.99
39295;BME280;52361;52.100;5.248;2023-04-03T01:24:00;103020.0;;;5.19;79.41
39295;BME280;52361;52.100;5.248;2023-04-03T01:25:46;103023.0;;;5.17;79.95
39295;BME280;52361;52.100;5.248;2023-04-03T01:27:24;103019.0;;;5.18;80.3
39295;BME280;52361;52.100;5.248;2023-04-03T01:30:43;103019.0;;;5.14;80.14
39295;BME280;52361;52.100;5.248;2023-04-03T01:32:22;103021.0;;;5.07;80.61
39295;BME280;52361;52.100;5.248;2023-04-03T01:34:00;103013.00000000001;;;5.12;80.83
39295;BME280;52361;52.100;5.248;2023-04-03T01:37:14;103016.00000000001;;;5.09;80.98
39295;BME280;52361;52.100;5.248;2023-04-03T01:38:51;103017.0;;;5.04;81.55
39295;BME280;52361;52.100;5.248;2023-04-03T01:40:28;103016.00000000001;;;4.95;82.69
39295;BME280;52361;52.100;5.248;2023-04-03T01:42:05;103011.99999999999;;;4.92;82.41
39295;BME280;52361;52.100;5.248;2023-04-03T01:45:18;103009.99999999999;;;4.84;83.46
39295;BME280;52361;52.100;5.248;2023-04-03T01:46:54;103008.99999999999;;;4.87;83.22
39295;BME280;52361;52.100;5.248;2023-04-03T01:48:31;103016.00000000001;;;4.86;83.6
39295;BME280;52361;52.100;5.248;2023-04-03T01:51:45;103011.99999999999;;;4.95;83.49
39295;BME280;52361;52.100;5.248;2023-04-03T01:53:22;103013.00000000001;;;5.0;83.35
39295;BME280;52361;52.100;5.248;2023-04-03T01:54:58;103015.00000000001;;;4.87;83.59
39295;BME280;52361;52.100;5.248;2023-04-03T01:58:10;103016.00000000001;;;4.8;84.27
39295;BME280;52361;52.100;5.248;2023-04-03T01:59:46;103020.0;;;4.88;84.6
39295;BME280;52361;52.100;5.248;2023-04-03T02:01:24;103017.0;;;4.99;84.13
39295;BME280;52361;52.100;5.248;2023-04-03T02:03:01;103019.0;;;4.87;84.75
39295;BME280;52361;52.100;5.248;2023-04-03T02:06:15;103019.0;;;4.86;84.92
39295;BME280;52361;52.100;5.248;2023-04-03T02:07:52;103022.0;;;4.82;85.71
39295;BME280;52361;52.100;5.248;2023-04-03T02:09:27;103021.0;;;4.82;85.77
39295;BME280;52361;52.100;5.248;2023-04-03T02:12:40;103023.0;;;4.78;85.83
39295;BME280;52361;52.100;5.248;2023-04-03T02:14:16;103026.0;;;4.7;86.52
39295;BME280;52361;52.100;5.248;2023-04-03T02:15:52;103029.0;;;4.66;86.87
39295;BME280;52361;52.100;5.248;2023-04-03T02:19:05;103033.0;;;4.68;87.28
39295;BME280;52361;52.100;5.248;2023-04-03T02:20:41;103031.0;;;4.74;86.97
39295;BME280;52361;52.100;5.248;2023-04-03T02:22:17;103032.0;;;4.57;87.68
39295;BME280;52361;52.100;5.248;2023-04-03T02:23:53;103029.0;;;4.62;88.08
39295;BME280;52361;52.100;5.248;2023-04-03T02:27:07;103032.0;;;4.57;88.23
39295;BME280;52361;52.100;5.248;2023-04-03T02:28:44;103029.0;;;4.66;88.27
39295;BME280;52361;52.100;5.248;2023-04-03T02:30:20;103038.00000000001;;;4.49;88.91
39295;BME280;52361;52.100;5.248;2023-04-03T02:33:32;103028.0;;;4.57;88.32
39295;BME280;52361;52.100;5.248;2023-04-03T02:35:10;103028.0;;;4.66;88.51
39295;BME280;52361;52.100;5.248;2023-04-03T02:36:47;103026.0;;;4.45;89.29
39295;BME280;52361;52.100;5.248;2023-04-03T02:40:00;103028.0;;;4.53;89.29
39295;BME280;52361;52.100;5.248;2023-04-03T02:41:37;103026.0;;;4.41;90.19
39295;BME280;52361;52.100;5.248;2023-04-03T02:43:13;103033.0;;;4.37;90.34
39295;BME280;52361;52.100;5.248;2023-04-03T02:44:49;103031.0;;;4.28;91.02
39295;BME280;52361;52.100;5.248;2023-04-03T02:48:01;103041.00000000001;;;4.45;90.45
39295;BME280;52361;52.100;5.248;2023-04-03T02:49:37;103042.0;;;4.47;90.46
39295;BME280;52361;52.100;5.248;2023-04-03T02:51:14;103041.00000000001;;;4.21;91.45
39295;BME280;52361;52.100;5.248;2023-04-03T02:54:26;103043.0;;;4.3;91.93
39295;BME280;52361;52.100;5.248;2023-04-03T02:56:02;103047.0;;;4.24;91.82
39295;BME280;52361;52.100;5.248;2023-04-03T02:57:38;103046.0;;;4.3;92.4
39295;BME280;52361;52.100;5.248;2023-04-03T03:00:52;103049.0;;;4.25;92.57
39295;BME280;52361;52.100;5.248;2023-04-03T03:02:28;103049.0;;;4.12;93.16
39295;BME280;52361;52.100;5.248;2023-04-03T03:04:04;103052.0;;;4.16;93.4
39295;BME280;52361;52.100;5.248;2023-04-03T03:07:17;103055.0;;;4.04;94.1
39295;BME280;52361;52.100;5.248;2023-04-03T03:08:53;103057.0;;;4.04;94.94
39295;BME280;52361;52.100;5.248;2023-04-03T03:10:29;103058.99999999999;;;4.22;94.08
39295;BME280;52361;52.100;5.248;2023-04-03T03:12:05;103065.00000000001;;;4.29;93.72
39295;BME280;52361;52.100;5.248;2023-04-03T03:15:18;103063.00000000001;;;4.24;93.5
39295;BME280;52361;52.100;5.248;2023-04-03T03:16:54;103064.00000000001;;;4.07;94.48
39295;BME280;52361;52.100;5.248;2023-04-03T03:18:30;103067.0;;;4.14;94.86
39295;BME280;52361;52.100;5.248;2023-04-03T03:23:20;103067.0;;;4.07;95.45
39295;BME280;52361;52.100;5.248;2023-04-03T03:25:00;103069.0;;;4.1;95.5
39295;BME280;52361;52.100;5.248;2023-04-03T03:28:13;103069.0;;;4.07;95.53
39295;BME280;52361;52.100;5.248;2023-04-03T03:29:49;103072.0;;;3.99;95.79
39295;BME280;52361;52.100;5.248;2023-04-03T03:31:26;103067.0;;;4.03;96.45
39295;BME280;52361;52.100;5.248;2023-04-03T03:33:02;103069.0;;;4.08;96.17
39295;BME280;52361;52.100;5.248;2023-04-03T03:36:15;103072.0;;;4.04;96.54
39295;BME280;52361;52.100;5.248;2023-04-03T03:37:51;103074.0;;;4.01;96.39
39295;BME280;52361;52.100;5.248;2023-04-03T03:39:28;103078.0;;;4.03;96.79
39295;BME280;52361;52.100;5.248;2023-04-03T03:42:40;103077.0;;;3.98;96.81
39295;BME280;52361;52.100;5.248;2023-04-03T03:44:16;103076.0;;;3.91;97.88
39295;BME280;52361;52.100;5.248;2023-04-03T03:45:53;103079.0;;;3.96;98.01
39295;BME280;52361;52.100;5.248;2023-04-03T03:49:06;103079.0;;;3.9;97.8
39295;BME280;52361;52.100;5.248;2023-04-03T03:50:42;103078.0;;;3.89;98.14
39295;BME280;52361;52.100;5.248;2023-04-03T03:52:18;103075.0;;;3.91;98.84
39295;BME280;52361;52.100;5.248;2023-04-03T03:53:54;103082.0;;;3.71;99.54
39295;BME280;52361;52.100;5.248;2023-04-03T03:57:07;103079.0;;;3.78;99.99
39295;BME280;52361;52.100;5.248;2023-04-03T03:58:44;103075.0;;;3.81;99.94
39295;BME280;52361;52.100;5.248;2023-04-03T04:00:20;103080.0;;;3.83;99.81
39295;BME280;52361;52.100;5.248;2023-04-03T04:03:33;103082.0;;;3.91;99.34
39295;BME280;52361;52.100;5.248;2023-04-03T04:05:09;103079.0;;;3.89;99.54
39295;BME280;52361;52.100;5.248;2023-04-03T04:06:45;103082.0;;;3.86;99.57
39295;BME280;52361;52.100;5.248;2023-04-03T04:09:57;103081.0;;;3.91;100.0
39295;BME280;52361;52.100;5.248;2023-04-03T04:11:34;103086.99999999999;;;3.83;100.0
39295;BME280;52361;52.100;5.248;2023-04-03T04:13:10;103084.99999999999;;;3.81;100.0
39295;BME280;52361;52.100;5.248;2023-04-03T04:14:46;103080.0;;;3.63;100.0
39295;BME280;52361;52.100;5.248;2023-04-03T04:17:59;103086.99999999999;;;3.87;100.0
39295;BME280;52361;52.100;5.248;2023-04-03T04:19:35;103088.00000000001;;;3.71;100.0
39295;BME280;52361;52.100;5.248;2023-04-03T04:21:11;103091.00000000001;;;3.78;100.0
39295;BME280;52361;52.100;5.248;2023-04-03T04:24:23;103094.0;;;3.72;100.0
39295;BME280;52361;52.100;5.248;2023-04-03T04:26:00;103093.0;;;3.65;100.0
39295;BME280;52361;52.100;5.248;2023-04-03T04:27:37;103094.0;;;3.54;100.0
39295;BME280;52361;52.100;5.248;2023-04-03T04:30:49;103096.0;;;3.55;100.0
39295;BME280;52361;52.100;5.248;2023-04-03T04:32:25;103105.0;;;3.55;100.0
39295;BME280;52361;52.100;5.248;2023-04-03T04:34:02;103101.0;;;3.58;100.0
39295;BME280;52361;52.100;5.248;2023-04-03T04:37:14;103103.0;;;3.51;100.0
39295;BME280;52361;52.100;5.248;2023-04-03T04:38:51;103100.0;;;3.52;100.0
39295;BME280;52361;52.100;5.248;2023-04-03T04:40:28;103104.0;;;3.56;100.0
39295;BME280;52361;52.100;5.248;2023-04-03T04:42:04;103103.0;;;3.58;100.0
39295;BME280;52361;52.100;5.248;2023-04-03T04:45:16;103102.0;;;3.58;100.0
39295;BME280;52361;52.100;5.248;2023-04-03T04:46:52;103105.0;;;3.57;100.0
39295;BME280;52361;52.100;5.248;2023-04-03T04:48:28;103108.0;;;3.57;100.0
39295;BME280;52361;52.100;5.248;2023-04-03T04:51:42;103105.0;;;3.59;100.0
39295;BME280;52361;52.100;5.248;2023-04-03T04:53:18;103113.00000000001;;;3.62;100.0
39295;BME280;52361;52.100;5.248;2023-04-03T04:54:54;103111.99999999999;;;3.65;100.0
39295;BME280;52361;52.100;5.248;2023-04-03T04:58:06;103114.00000000001;;;3.45;100.0
39295;BME280;52361;52.100;5.248;2023-04-03T04:59:43;103113.00000000001;;;3.43;100.0
39295;BME280;52361;52.100;5.248;2023-04-03T05:01:19;103108.99999999999;;;3.42;100.0
39295;BME280;52361;52.100;5.248;2023-04-03T05:02:55;103113.00000000001;;;3.46;100.0
39295;BME280;52361;52.100;5.248;2023-04-03T05:06:08;103107.0;;;3.33;100.0
39295;BME280;52361;52.100;5.248;2023-04-03T05:07:44;103108.99999999999;;;3.37;100.0
39295;BME280;52361;52.100;5.248;2023-04-03T05:09:20;103114.00000000001;;;3.5;100.0
39295;BME280;52361;52.100;5.248;2023-04-03T05:12:32;103114.00000000001;;;3.55;100.0
39295;BME280;52361;52.100;5.248;2023-04-03T05:14:09;103114.00000000001;;;3.41;100.0
39295;BME280;52361;52.100;5.248;2023-04-03T05:15:46;103113.00000000001;;;3.46;100.0
39295;BME280;52361;52.100;5.248;2023-04-03T05:18:58;103108.99999999999;;;3.5;100.0
39295;BME280;52361;52.100;5.248;2023-04-03T05:20:35;103111.99999999999;;;3.52;100.0
39295;BME280;52361;52.100;5.248;2023-04-03T05:22:11;103119.0;;;3.37;100.0
39295;BME280;52361;52.100;5.248;2023-04-03T05:23:47;103123.0;;;3.33;100.0
39295;BME280;52361;52.100;5.248;2023-04-03T05:26:59;103125.0;;;3.4;100.0
39295;BME280;52361;52.100;5.248;2023-04-03T05:28:35;103129.0;;;3.04;100.0
39295;BME280;52361;52.100;5.248;2023-04-03T05:30:13;103139.00000000001;;;3.18;100.0
39295;BME280;52361;52.100;5.248;2023-04-03T05:33:26;103133.99999999999;;;3.37;100.0
39295;BME280;52361;52.100;5.248;2023-04-03T05:35:04;103136.99999999999;;;3.5;100.0
39295;BME280;52361;52.100;5.248;2023-04-03T05:36:40;103141.00000000001;;;3.51;100.0
39295;BME280;52361;52.100;5.248;2023-04-03T05:39:52;103141.00000000001;;;3.44;100.0
39295;BME280;52361;52.100;5.248;2023-04-03T05:41:28;103140.00000000001;;;3.37;100.0
39295;BME280;52361;52.100;5.248;2023-04-03T05:43:04;103141.00000000001;;;3.34;100.0
39295;BME280;52361;52.100;5.248;2023-04-03T05:46:18;103136.99999999999;;;3.37;100.0
39295;BME280;52361;52.100;5.248;2023-04-03T05:47:55;103140.00000000001;;;3.46;100.0
39295;BME280;52361;52.100;5.248;2023-04-03T05:49:31;103144.0;;;3.27;100.0
39295;BME280;52361;52.100;5.248;2023-04-03T05:54:31;103140.00000000001;;;3.41;100.0
39295;BME280;52361;52.100;5.248;2023-04-03T05:56:07;103147.0;;;3.43;100.0
39295;BME280;52361;52.100;5.248;2023-04-03T06:00:57;103147.0;;;3.43;100.0
39295;BME280;52361;52.100;5.248;2023-04-03T06:02:33;103154.0;;;3.54;100.0
39295;BME280;52361;52.100;5.248;2023-04-03T06:04:09;103156.0;;;3.64;100.0
39295;BME280;52361;52.100;5.248;2023-04-03T06:05:46;103153.0;;;3.7;100.0
39295;BME280;52361;52.100;5.248;2023-04-03T06:09:00;103151.0;;;3.95;100.0
39295;BME280;52361;52.100;5.248;2023-04-03T06:10:37;103152.0;;;3.92;100.0
39295;BME280;52361;52.100;5.248;2023-04-03T06:12:13;103152.0;;;3.89;100.0
39295;BME280;52361;52.100;5.248;2023-04-03T06:15:26;103151.0;;;3.93;100.0
39295;BME280;52361;52.100;5.248;2023-04-03T06:17:03;103157.0;;;3.95;100.0
39295;BME280;52361;52.100;5.248;2023-04-03T06:18:39;103156.0;;;4.16;99.4
39295;BME280;52361;52.100;5.248;2023-04-03T06:25:13;103164.00000000001;;;4.55;95.76
39295;BME280;52361;52.100;5.248;2023-04-03T06:26:49;103155.0;;;4.87;94.21
39295;BME280;52361;52.100;5.248;2023-04-03T06:30:02;103158.0;;;5.03;93.02
39295;BME280;52361;52.100;5.248;2023-04-03T06:31:38;103159.99999999999;;;5.15;90.69
39295;BME280;52361;52.100;5.248;2023-04-03T06:33:14;103158.0;;;5.41;89.01
39295;BME280;52361;52.100;5.248;2023-04-03T06:36:26;103167.0;;;5.48;87.89
39295;BME280;52361;52.100;5.248;2023-04-03T06:38:02;103167.0;;;5.64;86.37
39295;BME280;52361;52.100;5.248;2023-04-03T06:39:38;103170.0;;;5.89;85.27
39295;BME280;52361;52.100;5.248;2023-04-03T06:41:15;103180.0;;;6.22;82.7
39295;BME280;52361;52.100;5.248;2023-04-03T06:44:28;103174.0;;;6.3;81.77
39295;BME280;52361;52.100;5.248;2023-04-03T06:46:04;103179.0;;;6.55;78.97
39295;BME280;52361;52.100;5.248;2023-04-03T06:47:40;103178.0;;;6.57;78.8
39295;BME280;52361;52.100;5.248;2023-04-03T06:50:53;103183.0;;;6.91;77.91
39295;BME280;52361;52.100;5.248;2023-04-03T06:52:29;103183.0;;;6.92;76.16
39295;BME280;52361;52.100;5.248;2023-04-03T06:54:06;103182.0;;;6.92;75.02
39295;BME280;52361;52.100;5.248;2023-04-03T06:57:18;103186.99999999999;;;7.08;75.03
39295;BME280;52361;52.100;5.248;2023-04-03T06:58:55;103192.0;;;6.94;74.11
39295;BME280;52361;52.100;5.248;2023-04-03T07:00:32;103192.0;;;7.13;74.27
39295;BME280;52361;52.100;5.248;2023-04-03T07:02:09;103190.00000000001;;;7.37;72.88
39295;BME280;52361;52.100;5.248;2023-04-03T07:05:24;103194.0;;;7.49;71.78
39295;BME280;52361;52.100;5.248;2023-04-03T07:07:01;103196.0;;;7.71;70.87
39295;BME280;52361;52.100;5.248;2023-04-03T07:08:37;103196.0;;;7.92;70.42
39295;BME280;52361;52.100;5.248;2023-04-03T07:11:50;103202.0;;;8.01;69.97
39295;BME280;52361;52.100;5.248;2023-04-03T07:13:27;103199.0;;;7.97;67.92
39295;BME280;52361;52.100;5.248;2023-04-03T07:15:04;103202.0;;;7.87;67.42
39295;BME280;52361;52.100;5.248;2023-04-03T07:18:16;103201.0;;;7.88;67.12
39295;BME280;52361;52.100;5.248;2023-04-03T07:19:52;103204.0;;;8.05;66.81
39295;BME280;52361;52.100;5.248;2023-04-03T07:21:29;103204.0;;;8.27;66.64
39295;BME280;52361;52.100;5.248;2023-04-03T07:23:06;103216.00000000001;;;8.39;66.55
39295;BME280;52361;52.100;5.248;2023-04-03T07:26:18;103217.0;;;8.61;65.6
39295;BME280;52361;52.100;5.248;2023-04-03T07:27:55;103215.00000000001;;;8.82;65.85
39295;BME280;52361;52.100;5.248;2023-04-03T07:29:31;103216.00000000001;;;8.85;64.44
39295;BME280;52361;52.100;5.248;2023-04-03T07:32:47;103217.0;;;8.92;64.44
39295;BME280;52361;52.100;5.248;2023-04-03T07:36:00;103216.00000000001;;;9.09;63.49
39295;BME280;52361;52.100;5.248;2023-04-03T07:39:13;103215.00000000001;;;9.14;61.74
39295;BME280;52361;52.100;5.248;2023-04-03T07:40:50;103214.00000000001;;;9.13;62.23
39295;BME280;52361;52.100;5.248;2023-04-03T07:42:26;103209.99999999999;;;9.02;62.12
39295;BME280;52361;52.100;5.248;2023-04-03T07:44:04;103206.0;;;9.06;61.96
39295;BME280;52361;52.100;5.248;2023-04-03T07:47:18;103211.99999999999;;;9.02;61.75
39295;BME280;52361;52.100;5.248;2023-04-03T07:48:54;103213.00000000001;;;9.01;61.51
39295;BME280;52361;52.100;5.248;2023-04-03T07:50:31;103213.00000000001;;;9.14;59.37
39295;BME280;52361;52.100;5.248;2023-04-03T07:53:43;103214.00000000001;;;9.36;58.34
39295;BME280;52361;52.100;5.248;2023-04-03T07:55:19;103216.00000000001;;;9.48;58.17
39295;BME280;52361;52.100;5.248;2023-04-03T07:56:55;103217.0;;;9.69;58.66
39295;BME280;52361;52.100;5.248;2023-04-03T08:00:08;103219.0;;;9.69;57.82
39295;BME280;52361;52.100;5.248;2023-04-03T08:01:44;103217.0;;;9.74;56.95
39295;BME280;52361;52.100;5.248;2023-04-03T08:03:21;103221.0;;;9.59;54.63
39295;BME280;52361;52.100;5.248;2023-04-03T08:04:57;103217.0;;;9.55;55.06
39295;BME280;52361;52.100;5.248;2023-04-03T08:08:10;103220.0;;;9.71;55.13
39295;BME280;52361;52.100;5.248;2023-04-03T08:09:47;103219.0;;;9.55;53.88
39295;BME280;52361;52.100;5.248;2023-04-03T08:11:23;103226.0;;;9.59;53.69
39295;BME280;52361;52.100;5.248;2023-04-03T08:14:37;103217.0;;;9.63;52.12
39295;BME280;52361;52.100;5.248;2023-04-03T08:16:16;103229.0;;;9.68;51.12
39295;BME280;52361;52.100;5.248;2023-04-03T08:17:54;103229.0;;;9.86;54.08
39295;BME280;52361;52.100;5.248;2023-04-03T08:19:30;103231.0;;;9.72;51.48
39295;BME280;52361;52.100;5.248;2023-04-03T08:22:44;103233.99999999999;;;9.51;52.36
39295;BME280;52361;52.100;5.248;2023-04-03T08:24:20;103242.0;;;9.38;52.71
39295;BME280;52361;52.100;5.248;2023-04-03T08:25:56;103240.00000000001;;;9.56;52.93
39295;BME280;52361;52.100;5.248;2023-04-03T08:29:09;103240.00000000001;;;9.41;52.31
39295;BME280;52361;52.100;5.248;2023-04-03T08:30:46;103242.0;;;9.47;51.66
39295;BME280;52361;52.100;5.248;2023-04-03T08:32:22;103242.0;;;9.56;50.02
39295;BME280;52361;52.100;5.248;2023-04-03T08:35:38;103247.0;;;9.4;50.59
39295;BME280;52361;52.100;5.248;2023-04-03T08:37:15;103245.0;;;9.4;51.31
39295;BME280;52361;52.100;5.248;2023-04-03T08:38:51;103251.0;;;9.39;49.91
39295;BME280;52361;52.100;5.248;2023-04-03T08:40:28;103245.0;;;9.5;47.03
39295;BME280;52361;52.100;5.248;2023-04-03T08:43:58;103245.0;;;9.61;49.74
39295;BME280;52361;52.100;5.248;2023-04-03T08:45:44;103249.0;;;9.8;48.67
39295;BME280;52361;52.100;5.248;2023-04-03T08:47:24;103248.0;;;9.81;49.45
39295;BME280;52361;52.100;5.248;2023-04-03T08:49:07;103247.0;;;10.0;48.92
39295;BME280;52361;52.100;5.248;2023-04-03T08:52:35;103250.0;;;10.23;49.43
39295;BME280;52361;52.100;5.248;2023-04-03T08:54:20;103247.0;;;10.33;47.19
39295;BME280;52361;52.100;5.248;2023-04-03T08:56:03;103247.0;;;10.35;44.66
39295;BME280;52361;52.100;5.248;2023-04-03T08:57:45;103249.0;;;10.32;43.19
39295;BME280;52361;52.100;5.248;2023-04-03T08:59:26;103241.00000000001;;;10.19;41.5
39295;BME280;52361;52.100;5.248;2023-04-03T09:02:53;103240.00000000001;;;10.46;43.34
39295;BME280;52361;52.100;5.248;2023-04-03T09:04:32;103233.99999999999;;;10.75;41.95
39295;BME280;52361;52.100;5.248;2023-04-03T09:06:13;103238.00000000001;;;10.81;40.67
39295;BME280;52361;52.100;5.248;2023-04-03T09:07:55;103241.00000000001;;;10.81;39.35
39295;BME280;52361;52.100;5.248;2023-04-03T09:11:22;103238.00000000001;;;11.03;39.64
39295;BME280;52361;52.100;5.248;2023-04-03T09:13:04;103244.0;;;10.54;36.4
39295;BME280;52361;52.100;5.248;2023-04-03T09:14:51;103239.00000000001;;;10.54;36.35
39295;BME280;52361;52.100;5.248;2023-04-03T09:16:38;103240.00000000001;;;10.45;37.29
39295;BME280;52361;52.100;5.248;2023-04-03T09:18:28;103242.0;;;10.57;39.08
39295;BME280;52361;52.100;5.248;2023-04-03T09:21:56;103240.00000000001;;;10.5;36.61
39295;BME280;52361;52.100;5.248;2023-04-03T09:23:36;103243.0;;;10.5;38.36
39295;BME280;52361;52.100;5.248;2023-04-03T09:25:20;103242.0;;;10.52;36.46
39295;BME280;52361;52.100;5.248;2023-04-03T09:26:59;103249.0;;;10.73;36.96
39295;BME280;52361;52.100;5.248;2023-04-03T09:28:39;103239.00000000001;;;10.63;34.62
39295;BME280;52361;52.100;5.248;2023-04-03T09:33:37;103238.00000000001;;;10.74;34.46
39295;BME280;52361;52.100;5.248;2023-04-03T09:35:19;103224.0;;;10.77;33.83
39295;BME280;52361;52.100;5.248;2023-04-03T09:36:58;103220.0;;;10.85;33.06
39295;BME280;52361;52.100;5.248;2023-04-03T09:40:31;103223.0;;;11.12;33.49
39295;BME280;52361;52.100;5.248;2023-04-03T09:42:22;103224.0;;;11.24;34.06
39295;BME280;52361;52.100;5.248;2023-04-03T09:43:59;103213.00000000001;;;11.37;32.57
39295;BME280;52361;52.100;5.248;2023-04-03T09:45:35;103208.0;;;11.54;34.67
39295;BME280;52361;52.100;5.248;2023-04-03T09:49:03;103217.0;;;11.48;32.83
39295;BME280;52361;52.100;5.248;2023-04-03T09:50:54;103225.0;;;11.34;33.05
39295;BME280;52361;52.100;5.248;2023-04-03T09:54:31;103205.0;;;11.8;31.39
39295;BME280;52361;52.100;5.248;2023-04-03T09:56:20;103211.99999999999;;;12.14;32.18
39295;BME280;52361;52.100;5.248;2023-04-03T09:58:01;103207.0;;;12.08;31.59
39295;BME280;52361;52.100;5.248;2023-04-03T10:01:26;103202.0;;;12.15;31.37
39295;BME280;52361;52.100;5.248;2023-04-03T10:03:04;103203.0;;;12.51;32.0
39295;BME280;52361;52.100;5.248;2023-04-03T10:04:41;103196.0;;;12.84;33.42
39295;BME280;52361;52.100;5.248;2023-04-03T10:06:22;103199.0;;;13.06;30.65
39295;BME280;52361;52.100;5.248;2023-04-03T10:10:01;103189.00000000001;;;12.78;29.54
39295;BME280;52361;52.100;5.248;2023-04-03T10:11:57;103184.99999999999;;;12.91;31.34
39295;BME280;52361;52.100;5.248;2023-04-03T10:13:34;103190.00000000001;;;13.04;29.49
39295;BME280;52361;52.100;5.248;2023-04-03T10:15:12;103186.99999999999;;;13.36;29.5
39295;BME280;52361;52.100;5.248;2023-04-03T10:16:56;103188.00000000001;;;13.99;28.85
39295;BME280;52361;52.100;5.248;2023-04-03T10:20:27;103180.0;;;13.87;28.09
39295;BME280;52361;52.100;5.248;2023-04-03T10:22:18;103181.0;;;13.7;28.51
39295;BME280;52361;52.100;5.248;2023-04-03T10:24:00;103183.0;;;13.53;28.94
39295;BME280;52361;52.100;5.248;2023-04-03T10:25:51;103172.0;;;13.26;29.27
39295;BME280;52361;52.100;5.248;2023-04-03T10:27:39;103161.99999999999;;;13.4;29.22
39295;BME280;52361;52.100;5.248;2023-04-03T10:29:27;103159.99999999999;;;13.9;30.37
39295;BME280;52361;52.100;5.248;2023-04-03T10:33:09;103161.99999999999;;;13.84;28.84
39295;BME280;52361;52.100;5.248;2023-04-03T10:34:56;103154.0;;;13.87;28.31
39295;BME280;52361;52.100;5.248;2023-04-03T10:36:42;103154.0;;;13.94;28.33
39295;BME280;52361;52.100;5.248;2023-04-03T10:38:31;103153.0;;;13.9;28.21
39295;BME280;52361;52.100;5.248;2023-04-03T10:40:25;103151.0;;;13.33;28.49
39295;BME280;52361;52.100;5.248;2023-04-03T10:42:08;103154.0;;;13.34;28.19
39295;BME280;52361;52.100;5.248;2023-04-03T10:43:59;103139.00000000001;;;13.2;28.05
39295;BME280;52361;52.100;5.248;2023-04-03T10:47:39;103141.00000000001;;;13.18;28.08
39295;BME280;52361;52.100;5.248;2023-04-03T10:49:28;103142.0;;;13.63;28.69
39295;BME280;52361;52.100;5.248;2023-04-03T10:51:18;103142.0;;;13.6;27.25
39295;BME280;52361;52.100;5.248;2023-04-03T10:53:04;103133.99999999999;;;13.55;28.1
39295;BME280;52361;52.100;5.248;2023-04-03T10:54:48;103134.99999999999;;;13.7;26.75
39295;BME280;52361;52.100;5.248;2023-04-03T10:56:35;103152.0;;;14.04;28.66
39295;BME280;52361;52.100;5.248;2023-04-03T11:00:03;103148.0;;;14.2;26.58
39295;BME280;52361;52.100;5.248;2023-04-03T11:01:42;103139.00000000001;;;14.24;26.95
39295;BME280;52361;52.100;5.248;2023-04-03T11:03:27;103142.0;;;14.18;24.9